Time;durP1;ratioP1;P1;durP2;ratioP2;P2;SDS_P1;SDS_P2;PMS_P1;PMS_P2;Temp;Humidity;BMP_temperature;BMP_pressure;BME280_temperature;BME280_humidity;BME280_pressure;Samples;Min_cycle;Max_cycle;Signal;HPM_P1;HPM_P2
2023/04/12 00:00:47;;;;;;;37.93;20.23;;;5.40;99.90;;;;;;4444013;28;658614;-69
2023/04/12 00:03:34;;;;;;;34.37;18.83;;;5.40;99.90;;;;;;4466963;28;659580;-69
2023/04/12 00:06:24;;;;;;;30.77;17.03;;;5.50;99.90;;;;;;4448029;28;658934;-69
2023/04/12 00:09:11;;;;;;;34.23;19.27;;;5.50;99.90;;;;;;4431847;28;658583;-69
2023/04/12 00:11:58;;;;;;;35.10;19.00;;;5.40;99.90;;;;;;4467037;28;660081;-69
2023/04/12 00:14:47;;;;;;;32.57;17.70;;;5.50;99.90;;;;;;4447473;28;658767;-69
2023/04/12 00:17:34;;;;;;;33.97;19.37;;;5.40;99.90;;;;;;4466637;28;659091;-69
2023/04/12 00:20:21;;;;;;;34.80;18.57;;;5.30;99.90;;;;;;4443409;28;659716;-69
2023/04/12 00:23:11;;;;;;;39.33;19.47;;;5.30;99.90;;;;;;4449926;28;659338;-69
2023/04/12 00:25:58;;;;;;;32.33;18.73;;;5.30;99.90;;;;;;4443024;28;660187;-69
2023/04/12 00:28:45;;;;;;;29.27;17.40;;;5.40;99.90;;;;;;4430641;28;658653;-68
2023/04/12 00:31:34;;;;;;;35.37;18.83;;;5.40;99.90;;;;;;4450217;28;659422;-69
2023/04/12 00:34:21;;;;;;;34.50;18.17;;;5.30;99.90;;;;;;4426739;28;658255;-68
2023/04/12 00:37:09;;;;;;;37.77;19.30;;;5.30;99.90;;;;;;4466220;28;659283;-69
2023/04/12 00:39:56;;;;;;;35.33;18.50;;;5.30;99.90;;;;;;4430712;28;658722;-69
2023/04/12 00:42:43;;;;;;;32.10;18.40;;;5.20;99.90;;;;;;4470166;28;659867;-68
2023/04/12 00:45:31;;;;;;;29.37;17.63;;;5.30;99.90;;;;;;4451377;28;658782;-69
2023/04/12 00:48:19;;;;;;;29.47;16.60;;;5.30;99.90;;;;;;4449353;28;659069;-69
2023/04/12 00:51:07;;;;;;;30.97;17.90;;;5.20;99.90;;;;;;4431577;28;659271;-69
2023/04/12 00:53:56;;;;;;;29.57;15.93;;;5.20;99.90;;;;;;4464456;28;659494;-69
2023/04/12 00:56:43;;;;;;;29.67;15.47;;;5.10;99.90;;;;;;4442265;28;659742;-69
2023/04/12 00:59:30;;;;;;;37.50;16.40;;;5.10;99.90;;;;;;4445556;28;658529;-69
2023/04/12 01:02:18;;;;;;;22.20;12.77;;;5.10;99.90;;;;;;4464750;28;659757;-69
2023/04/12 01:05:07;;;;;;;29.20;15.37;;;5.10;99.90;;;;;;4457560;28;658476;-69
2023/04/12 01:07:59;;;;;;;26.43;14.83;;;5.10;99.90;;;;;;4465502;28;659007;-69
2023/04/12 01:10:49;;;;;;;27.93;15.33;;;5.10;99.90;;;;;;4411609;28;659615;-68
2023/04/12 01:13:45;;;;;;;25.67;13.37;;;5.10;99.90;;;;;;4412062;28;658746;-69
2023/04/12 01:16:36;;;;;;;22.17;13.37;;;5.10;99.90;;;;;;4408494;28;659203;-69
2023/04/12 01:19:34;;;;;;;28.43;14.07;;;5.10;99.90;;;;;;4407588;28;658993;-69
2023/04/12 01:22:38;;;;;;;18.17;11.87;;;5.20;99.90;;;;;;4384356;28;658770;-69
2023/04/12 01:25:39;;;;;;;22.10;12.43;;;5.00;99.90;;;;;;4389650;28;659091;-68
2023/04/12 01:28:32;;;;;;;21.15;12.35;;;5.00;99.90;;;;;;4385339;28;659511;-68
2023/04/12 01:31:20;;;;;;;19.73;11.07;;;5.00;99.90;;;;;;4407492;28;658566;-69
2023/04/12 01:34:08;;;;;;;19.00;11.33;;;4.90;99.90;;;;;;4408460;28;659997;-69
2023/04/12 01:36:55;;;;;;;18.07;11.70;;;4.90;99.90;;;;;;4406677;28;659048;-69
2023/04/12 01:39:42;;;;;;;17.73;10.93;;;4.90;99.90;;;;;;4430982;28;659981;-69
2023/04/12 01:42:30;;;;;;;16.97;9.40;;;4.90;99.90;;;;;;4429621;28;658649;-68
2023/04/12 01:45:19;;;;;;;17.52;10.60;;;4.90;99.90;;;;;;4421318;28;657366;-69
2023/04/12 01:48:07;;;;;;;18.93;10.63;;;4.90;99.90;;;;;;4398891;28;659390;-69
2023/04/12 01:50:59;;;;;;;17.70;9.60;;;4.80;99.90;;;;;;4434228;28;659376;-69
2023/04/12 01:53:50;;;;;;;20.33;10.53;;;4.80;99.90;;;;;;4389942;28;658107;-69
2023/04/12 01:56:39;;;;;;;17.23;10.80;;;4.80;99.90;;;;;;4411509;28;659678;-69
2023/04/12 01:59:28;;;;;;;18.60;11.00;;;4.80;99.90;;;;;;4411658;28;658732;-68
2023/04/12 02:02:17;;;;;;;19.98;11.43;;;4.90;99.90;;;;;;4420911;28;658584;-68
2023/04/12 02:05:04;;;;;;;21.70;12.40;;;4.90;99.90;;;;;;4434428;28;658658;-69
2023/04/12 02:07:51;;;;;;;21.43;11.97;;;4.90;99.90;;;;;;4412236;28;658654;-68
2023/04/12 02:10:39;;;;;;;17.50;9.90;;;4.80;99.90;;;;;;4436888;28;659597;-69
2023/04/12 02:13:26;;;;;;;20.67;13.10;;;4.80;99.90;;;;;;4434251;28;657864;-69
2023/04/12 02:16:13;;;;;;;27.77;12.67;;;4.80;99.90;;;;;;4452280;28;659755;-68
2023/04/12 02:19:02;;;;;;;23.33;12.93;;;4.80;99.90;;;;;;4432734;28;658851;-68
2023/04/12 02:21:50;;;;;;;22.63;13.27;;;4.80;99.90;;;;;;4456171;28;658335;-69
2023/04/12 02:24:37;;;;;;;23.17;12.73;;;4.80;99.90;;;;;;4429179;28;659922;-69
2023/04/12 02:27:25;;;;;;;21.53;13.10;;;4.80;99.90;;;;;;4452007;28;659680;-69
2023/04/12 02:30:12;;;;;;;19.57;10.20;;;4.80;99.90;;;;;;4428842;28;660004;-68
2023/04/12 02:33:01;;;;;;;21.60;12.93;;;4.70;99.90;;;;;;4451786;28;659481;-69
2023/04/12 02:35:49;;;;;;;21.03;12.00;;;4.80;99.90;;;;;;4428281;28;659244;-68
2023/04/12 02:38:36;;;;;;;20.87;12.13;;;4.70;99.90;;;;;;4432878;28;658598;-68
2023/04/12 02:41:24;;;;;;;17.90;11.60;;;4.70;99.90;;;;;;4451538;28;658714;-69
2023/04/12 02:44:11;;;;;;;20.25;11.82;;;4.70;99.90;;;;;;4432507;28;658751;-69
2023/04/12 02:46:58;;;;;;;19.17;11.00;;;4.70;99.90;;;;;;4451764;28;659874;-68
2023/04/12 02:49:45;;;;;;;20.77;10.80;;;4.70;99.90;;;;;;4432928;28;659007;-69
2023/04/12 02:52:34;;;;;;;20.67;11.50;;;4.70;99.90;;;;;;4450250;28;660702;-69
2023/04/12 02:55:21;;;;;;;21.48;11.80;;;4.70;99.90;;;;;;4431786;28;658652;-69
2023/04/12 02:58:09;;;;;;;20.33;11.97;;;4.70;99.90;;;;;;4451388;28;659135;-69
2023/04/12 03:00:59;;;;;;;21.53;11.73;;;4.60;99.90;;;;;;4432200;28;659230;-68
2023/04/12 03:03:46;;;;;;;22.20;11.63;;;4.60;99.90;;;;;;4432368;28;658608;-68
2023/04/12 03:06:33;;;;;;;20.97;11.77;;;4.60;99.90;;;;;;4454167;28;658355;-68
2023/04/12 03:09:22;;;;;;;19.53;11.97;;;4.60;99.90;;;;;;4432238;28;658627;-69
2023/04/12 03:12:09;;;;;;;22.47;12.10;;;4.60;99.90;;;;;;4450997;28;658777;-69
2023/04/12 03:14:58;;;;;;;20.90;11.87;;;4.60;99.90;;;;;;4426665;28;660190;-69
2023/04/12 03:17:45;;;;;;;21.67;12.55;;;4.50;99.90;;;;;;4436321;28;659175;-68
2023/04/12 03:20:32;;;;;;;20.93;12.97;;;4.60;99.90;;;;;;4454878;28;659371;-69
2023/04/12 03:23:20;;;;;;;21.53;12.03;;;4.50;99.90;;;;;;4450666;28;658498;-68
2023/04/12 03:26:09;;;;;;;21.40;10.97;;;4.60;99.90;;;;;;4433449;28;660131;-68
2023/04/12 03:28:59;;;;;;;19.63;11.10;;;4.60;99.90;;;;;;4432130;28;658823;-68
2023/04/12 03:31:46;;;;;;;19.98;10.88;;;4.60;99.90;;;;;;4432066;28;658893;-68
2023/04/12 03:34:34;;;;;;;20.80;11.00;;;4.60;99.90;;;;;;4450950;28;659692;-69
2023/04/12 03:37:21;;;;;;;20.93;11.13;;;4.50;99.90;;;;;;4431096;28;659417;-68
2023/04/12 03:40:09;;;;;;;21.47;10.50;;;4.60;99.90;;;;;;4449692;28;659219;-68
2023/04/12 03:42:58;;;;;;;20.83;10.43;;;4.50;99.90;;;;;;4431712;28;658628;-69
2023/04/12 03:45:45;;;;;;;21.23;10.57;;;4.50;99.90;;;;;;4431624;28;658839;-69
2023/04/12 03:48:32;;;;;;;21.23;10.50;;;4.50;99.90;;;;;;4450681;28;659153;-68
2023/04/12 03:51:21;;;;;;;18.80;10.53;;;4.60;99.90;;;;;;4450553;28;658220;-69
2023/04/12 03:54:08;;;;;;;22.23;11.23;;;4.60;99.90;;;;;;4427527;28;659806;-69
2023/04/12 03:56:56;;;;;;;18.93;10.73;;;4.60;99.90;;;;;;4430442;28;658778;-68
2023/04/12 03:59:45;;;;;;;20.57;10.73;;;4.60;99.90;;;;;;4454437;28;659429;-69
2023/04/12 04:02:32;;;;;;;27.03;12.53;;;4.50;99.90;;;;;;4427397;28;659429;-68
2023/04/12 04:05:19;;;;;;;21.07;11.87;;;4.50;99.90;;;;;;4446761;28;659304;-69
2023/04/12 04:08:07;;;;;;;21.47;11.27;;;4.50;99.90;;;;;;4429920;28;658704;-69
2023/04/12 04:10:54;;;;;;;19.37;10.80;;;4.50;99.90;;;;;;4448726;28;659088;-68
2023/04/12 04:13:41;;;;;;;19.37;9.60;;;4.50;99.90;;;;;;4431441;28;658870;-69
2023/04/12 04:16:30;;;;;;;17.87;10.13;;;4.50;99.90;;;;;;4451265;28;658756;-68
2023/04/12 04:19:17;;;;;;;22.23;10.13;;;4.40;99.90;;;;;;4427249;28;660035;-69
2023/04/12 04:22:04;;;;;;;20.33;10.10;;;4.40;99.90;;;;;;4450166;28;658754;-69
2023/04/12 04:24:51;;;;;;;16.40;10.00;;;4.50;99.90;;;;;;4430113;28;659018;-69
2023/04/12 04:27:39;;;;;;;16.70;9.70;;;4.50;99.90;;;;;;4450066;28;659725;-69
2023/04/12 04:30:26;;;;;;;17.40;9.80;;;4.50;99.90;;;;;;4431496;28;657666;-69
2023/04/12 04:33:15;;;;;;;20.07;9.80;;;4.60;99.90;;;;;;4450889;28;658298;-68
2023/04/12 04:36:03;;;;;;;18.27;9.67;;;4.50;99.90;;;;;;4427927;28;658740;-68
2023/04/12 04:38:50;;;;;;;16.40;9.10;;;4.50;99.90;;;;;;4442981;28;657215;-68
2023/04/12 04:41:40;;;;;;;20.07;9.23;;;4.50;99.90;;;;;;4450626;28;659062;-68
2023/04/12 04:44:27;;;;;;;18.87;9.90;;;4.50;99.90;;;;;;4427755;28;658484;-69
2023/04/12 04:47:14;;;;;;;19.07;9.93;;;4.50;99.90;;;;;;4450406;28;657425;-69
2023/04/12 04:50:03;;;;;;;19.10;9.68;;;4.50;99.90;;;;;;4431895;28;658339;-69
2023/04/12 04:52:50;;;;;;;22.40;10.70;;;4.50;99.90;;;;;;4436026;28;657498;-69
2023/04/12 04:55:38;;;;;;;18.87;9.40;;;4.50;99.90;;;;;;4449600;28;660265;-68
2023/04/12 04:58:25;;;;;;;20.60;11.87;;;4.60;99.90;;;;;;4443694;28;657289;-69
2023/04/12 05:01:15;;;;;;;25.27;12.90;;;4.50;99.90;;;;;;4449318;28;659351;-68
2023/04/12 05:04:02;;;;;;;25.07;12.73;;;4.50;99.90;;;;;;4427759;28;660065;-69
2023/04/12 05:06:52;;;;;;;22.00;11.87;;;4.50;99.90;;;;;;4447887;28;658587;-68
2023/04/12 05:09:40;;;;;;;25.40;13.17;;;4.60;99.90;;;;;;4449569;28;658941;-69
2023/04/12 05:12:27;;;;;;;21.47;12.63;;;4.60;99.90;;;;;;4426023;28;659182;-69
2023/04/12 05:15:14;;;;;;;23.93;12.27;;;4.70;99.90;;;;;;4446783;28;658858;-69
2023/04/12 05:18:01;;;;;;;22.87;12.60;;;4.80;99.90;;;;;;4430183;28;658688;-69
2023/04/12 05:20:48;;;;;;;26.33;13.33;;;4.70;99.90;;;;;;4448977;28;660578;-69
2023/04/12 05:23:37;;;;;;;22.63;13.20;;;4.80;99.90;;;;;;4429015;28;659419;-69
2023/04/12 05:26:24;;;;;;;22.73;12.90;;;4.90;99.90;;;;;;4449078;28;658675;-68
2023/04/12 05:29:11;;;;;;;23.13;13.37;;;4.90;99.90;;;;;;4429258;28;658883;-69
2023/04/12 05:31:59;;;;;;;26.73;13.63;;;4.90;99.90;;;;;;4449042;28;660357;-69
2023/04/12 05:34:46;;;;;;;25.33;13.97;;;5.00;99.90;;;;;;4430109;28;659260;-69
2023/04/12 05:37:33;;;;;;;23.40;13.70;;;4.90;99.90;;;;;;4449127;28;659753;-69
2023/04/12 05:40:22;;;;;;;26.40;14.33;;;5.00;99.90;;;;;;4430127;28;658998;-68
2023/04/12 05:43:11;;;;;;;22.63;13.30;;;5.00;99.90;;;;;;4449006;28;659085;-69
2023/04/12 05:45:58;;;;;;;22.53;13.23;;;5.10;99.90;;;;;;4425580;28;659109;-69
2023/04/12 05:48:46;;;;;;;20.73;12.33;;;5.10;99.90;;;;;;4430028;28;658555;-69
2023/04/12 05:51:33;;;;;;;23.73;13.47;;;5.00;99.90;;;;;;4448556;28;658945;-68
2023/04/12 05:54:21;;;;;;;28.27;14.07;;;4.90;99.90;;;;;;4437963;28;658583;-69
2023/04/12 05:57:09;;;;;;;29.63;14.57;;;4.80;99.90;;;;;;4452793;28;660151;-69
2023/04/12 05:59:56;;;;;;;28.73;14.10;;;4.80;99.90;;;;;;4428917;28;658863;-68
2023/04/12 06:02:44;;;;;;;30.73;14.43;;;4.80;99.90;;;;;;4448989;28;659326;-69
2023/04/12 06:05:31;;;;;;;26.43;13.73;;;4.80;99.90;;;;;;4428617;28;659404;-69
2023/04/12 06:08:18;;;;;;;29.77;14.97;;;4.80;99.90;;;;;;4448759;28;660403;-69
2023/04/12 06:11:06;;;;;;;27.73;14.53;;;4.80;99.90;;;;;;4429476;28;658810;-68
2023/04/12 06:13:55;;;;;;;24.63;14.70;;;4.90;99.90;;;;;;4448515;28;659107;-69
2023/04/12 06:16:43;;;;;;;35.40;16.07;;;4.80;99.90;;;;;;4425451;28;659820;-69
2023/04/12 06:19:30;;;;;;;28.90;15.97;;;4.80;99.90;;;;;;4439461;28;658816;-69
2023/04/12 06:22:17;;;;;;;28.63;13.30;;;4.80;99.90;;;;;;4452951;28;659731;-68
2023/04/12 06:25:05;;;;;;;29.07;14.93;;;4.70;99.90;;;;;;4448551;28;658807;-68
2023/04/12 06:27:53;;;;;;;32.80;16.03;;;4.70;99.90;;;;;;4425697;28;660288;-69
2023/04/12 06:30:42;;;;;;;27.47;15.53;;;4.80;99.90;;;;;;4439412;28;658554;-69
2023/04/12 06:33:29;;;;;;;28.03;15.77;;;4.80;99.90;;;;;;4451636;28;659015;-69
2023/04/12 06:36:16;;;;;;;32.60;16.20;;;4.80;99.90;;;;;;4431608;28;659575;-69
2023/04/12 06:39:03;;;;;;;27.87;16.57;;;4.80;99.90;;;;;;4451882;28;659478;-68
2023/04/12 06:41:50;;;;;;;29.30;16.20;;;4.80;99.90;;;;;;4432623;28;658575;-69
2023/04/12 06:44:38;;;;;;;25.13;13.63;;;4.80;99.90;;;;;;4451754;28;659931;-69
2023/04/12 06:47:26;;;;;;;30.43;16.70;;;4.70;99.90;;;;;;4446914;28;659342;-69
2023/04/12 06:50:14;;;;;;;30.07;16.40;;;4.80;99.90;;;;;;4451558;28;658245;-69
2023/04/12 06:53:01;;;;;;;31.80;16.43;;;4.80;99.90;;;;;;4431877;28;659028;-68
2023/04/12 06:55:48;;;;;;;32.28;16.77;;;4.70;99.90;;;;;;4451948;28;659729;-69
2023/04/12 06:58:35;;;;;;;29.93;16.87;;;4.90;99.90;;;;;;4432428;28;658716;-69
2023/04/12 07:01:23;;;;;;;27.97;15.43;;;4.90;99.90;;;;;;4451155;28;660130;-69
2023/04/12 07:04:12;;;;;;;27.97;15.60;;;4.90;99.90;;;;;;4446056;28;658555;-69
2023/04/12 07:06:59;;;;;;;28.40;15.97;;;4.90;99.90;;;;;;4455577;28;658358;-69
2023/04/12 07:09:47;;;;;;;28.33;16.27;;;5.10;99.90;;;;;;4432154;28;658601;-68
2023/04/12 07:12:34;;;;;;;37.80;16.27;;;5.00;99.90;;;;;;4450806;28;659424;-69
2023/04/12 07:15:21;;;;;;;28.60;16.10;;;5.00;99.90;;;;;;4431601;28;659066;-69
2023/04/12 07:18:09;;;;;;;30.50;16.63;;;5.00;99.90;;;;;;4450497;28;659253;-69
2023/04/12 07:20:58;;;;;;;29.83;16.67;;;5.20;99.90;;;;;;4431257;28;658632;-69
2023/04/12 07:23:49;;;;;;;30.63;16.20;;;5.30;99.90;;;;;;4431113;28;659596;-69
2023/04/12 07:26:37;;;;;;;28.27;16.13;;;5.20;99.90;;;;;;4430952;28;659293;-69
2023/04/12 07:29:24;;;;;;;25.67;15.13;;;5.30;99.90;;;;;;4450978;28;659241;-69
2023/04/12 07:32:11;;;;;;;23.13;13.40;;;5.40;99.90;;;;;;4430218;28;658873;-69
2023/04/12 07:34:58;;;;;;;24.93;14.47;;;5.40;99.90;;;;;;4450292;28;658954;-69
2023/04/12 07:37:47;;;;;;;25.77;14.10;;;5.60;99.90;;;;;;4431912;28;658590;-69
2023/04/12 07:40:34;;;;;;;27.33;14.73;;;5.70;99.90;;;;;;4450525;28;658321;-69
2023/04/12 07:43:21;;;;;;;25.47;13.53;;;5.70;99.90;;;;;;4430977;28;658728;-68
2023/04/12 07:46:08;;;;;;;25.52;13.90;;;6.00;99.90;;;;;;4450512;28;660671;-69
2023/04/12 07:48:55;;;;;;;27.37;15.03;;;6.20;99.90;;;;;;4431549;28;658845;-69
2023/04/12 07:51:42;;;;;;;23.43;13.17;;;6.40;99.90;;;;;;4449970;28;659965;-69
2023/04/12 07:54:32;;;;;;;26.17;12.87;;;6.60;99.90;;;;;;4446254;28;659017;-69
2023/04/12 07:57:19;;;;;;;19.90;11.73;;;6.90;99.90;;;;;;4450107;28;658417;-68
2023/04/12 08:00:08;;;;;;;21.37;12.67;;;6.80;99.90;;;;;;4427413;28;659103;-68
2023/04/12 08:02:55;;;;;;;22.27;13.10;;;7.00;99.90;;;;;;4440416;28;658715;-69
2023/04/12 08:05:42;;;;;;;23.93;14.33;;;7.10;99.90;;;;;;4450347;28;659564;-69
2023/04/12 08:08:30;;;;;;;24.20;15.23;;;7.00;99.90;;;;;;4445656;28;658893;-69
2023/04/12 08:11:19;;;;;;;26.80;15.10;;;7.00;99.90;;;;;;4454430;28;659343;-69
2023/04/12 08:14:06;;;;;;;31.70;15.80;;;7.10;99.90;;;;;;4429218;28;660121;-68
2023/04/12 08:16:53;;;;;;;24.20;13.13;;;7.50;99.90;;;;;;4450150;28;659484;-69
2023/04/12 08:19:40;;;;;;;28.03;14.77;;;7.70;99.90;;;;;;4431285;28;659063;-69
2023/04/12 08:22:27;;;;;;;21.47;13.00;;;8.00;99.90;;;;;;4454532;28;659147;-69
2023/04/12 08:25:15;;;;;;;18.30;10.70;;;8.70;99.90;;;;;;4446391;28;658785;-69
2023/04/12 08:28:06;;;;;;;16.47;10.50;;;9.30;99.90;;;;;;4449904;28;659651;-69
2023/04/12 08:30:53;;;;;;;15.70;9.83;;;8.80;99.90;;;;;;4427148;28;659271;-69
2023/04/12 08:33:40;;;;;;;16.20;9.97;;;8.70;99.90;;;;;;4433040;28;657567;-70
2023/04/12 08:36:27;;;;;;;20.07;10.23;;;9.20;99.90;;;;;;4455346;28;657408;-69
2023/04/12 08:39:15;;;;;;;20.07;9.80;;;9.40;99.90;;;;;;4449826;28;658775;-69
2023/04/12 08:42:02;;;;;;;15.07;9.17;;;8.80;99.90;;;;;;4428195;28;658445;-69
2023/04/12 08:44:52;;;;;;;17.97;9.70;;;9.10;99.90;;;;;;4450646;28;657618;-69
2023/04/12 08:47:40;;;;;;;17.63;10.00;;;9.50;99.90;;;;;;4428169;28;658702;-70
2023/04/12 08:50:27;;;;;;;14.20;7.80;;;9.20;99.90;;;;;;4426336;28;659424;-68
2023/04/12 08:53:15;;;;;;;16.87;9.73;;;8.70;99.90;;;;;;4432248;28;658124;-69
2023/04/12 08:56:02;;;;;;;16.27;9.77;;;8.60;99.90;;;;;;4433141;28;658347;-69
2023/04/12 08:58:50;;;;;;;14.43;9.53;;;9.00;99.90;;;;;;4428455;28;657642;-70
2023/04/12 09:01:40;;;;;;;17.43;9.50;;;9.40;99.90;;;;;;4432700;28;658986;-70
2023/04/12 09:04:28;;;;;;;16.90;9.30;;;9.60;99.90;;;;;;4409920;28;658033;-69
2023/04/12 09:07:15;;;;;;;13.43;9.00;;;9.20;99.90;;;;;;4414121;28;657786;-69
2023/04/12 09:10:03;;;;;;;13.57;8.67;;;8.90;99.90;;;;;;4432745;28;659016;-70
2023/04/12 09:12:50;;;;;;;14.30;8.40;;;8.50;99.90;;;;;;4414128;28;657661;-70
2023/04/12 09:15:48;;;;;;;13.93;9.00;;;8.50;99.90;;;;;;4415256;28;658613;-69
2023/04/12 09:18:47;;;;;;;18.00;7.80;;;8.00;99.90;;;;;;4393452;28;657139;-70
2023/04/12 09:21:35;;;;;;;16.33;9.70;;;8.00;99.90;;;;;;4409575;28;657467;-70
2023/04/12 09:24:23;;;;;;;17.37;8.17;;;8.10;99.90;;;;;;4409940;28;658827;-70
2023/04/12 09:27:10;;;;;;;21.15;9.13;;;8.20;99.90;;;;;;4418910;28;657622;-70
2023/04/12 09:30:07;;;;;;;16.27;8.70;;;8.70;99.90;;;;;;4432793;28;658416;-70
2023/04/12 09:32:54;;;;;;;15.27;8.37;;;8.60;99.90;;;;;;4409467;28;657557;-70
2023/04/12 09:35:43;;;;;;;12.33;7.30;;;9.10;99.90;;;;;;4413716;28;657580;-69
2023/04/12 09:38:30;;;;;;;13.17;7.30;;;9.40;99.90;;;;;;4422939;28;657880;-70
2023/04/12 09:41:18;;;;;;;13.47;7.90;;;9.30;99.90;;;;;;4414922;28;658082;-70
2023/04/12 09:44:05;;;;;;;9.63;6.57;;;9.20;99.90;;;;;;4413577;28;658312;-70
2023/04/12 09:46:53;;;;;;;10.03;5.73;;;9.40;99.90;;;;;;4432126;28;657749;-70
2023/04/12 09:49:41;;;;;;;9.90;5.80;;;9.50;99.90;;;;;;4423605;28;658158;-69
2023/04/12 09:52:34;;;;;;;11.13;5.93;;;9.40;99.90;;;;;;4449733;28;657243;-70
2023/04/12 09:55:22;;;;;;;8.93;5.60;;;9.60;99.90;;;;;;4404528;28;658683;-70
2023/04/12 09:58:09;;;;;;;6.50;4.53;;;10.10;99.90;;;;;;4447512;28;656994;-70
2023/04/12 10:00:56;;;;;;;9.97;6.90;;;10.30;99.90;;;;;;4430861;28;657409;-70
2023/04/12 10:03:43;;;;;;;11.53;6.67;;;10.30;99.90;;;;;;4450091;28;657996;-70
2023/04/12 10:06:31;;;;;;;12.10;6.57;;;10.50;99.90;;;;;;4432221;28;659184;-70
2023/04/12 10:09:20;;;;;;;13.03;7.53;;;10.40;99.90;;;;;;4451653;28;659603;-70
2023/04/12 10:12:08;;;;;;;13.17;8.40;;;10.60;99.90;;;;;;4433175;28;659600;-70
2023/04/12 10:14:55;;;;;;;10.17;6.80;;;10.60;99.90;;;;;;4433247;28;658721;-69
2023/04/12 10:17:44;;;;;;;12.63;7.40;;;10.50;99.90;;;;;;4451545;28;659789;-70
2023/04/12 10:20:31;;;;;;;13.50;6.80;;;10.30;99.90;;;;;;4432599;28;659134;-70
2023/04/12 10:23:18;;;;;;;12.30;7.27;;;10.50;99.90;;;;;;4455444;28;659139;-70
2023/04/12 10:26:07;;;;;;;13.27;6.93;;;10.60;99.90;;;;;;4433030;28;658657;-70
2023/04/12 10:29:25;;;;;;;13.97;7.07;;;10.60;99.90;;;;;;4451644;28;659254;-70
2023/04/12 10:32:19;;;;;;;10.33;6.73;;;10.30;99.90;;;;;;4405399;28;659135;-70
2023/04/12 10:35:07;;;;;;;12.27;6.60;;;10.30;99.90;;;;;;4388041;28;659739;-69
2023/04/12 10:37:58;;;;;;;11.97;5.90;;;10.40;99.90;;;;;;4451924;28;658593;-70
2023/04/12 10:41:08;;;;;;;11.30;6.43;;;10.70;99.90;;;;;;4409625;28;659204;-70
2023/04/12 10:44:20;;;;;;;13.13;6.17;;;11.00;99.90;;;;;;4421687;28;658881;-70
2023/04/12 10:47:08;;;;;;;8.20;5.60;;;11.00;99.90;;;;;;4428168;28;659107;-70
2023/04/12 10:50:20;;;;;;;11.07;5.97;;;10.80;99.90;;;;;;4433894;28;657775;-69
2023/04/12 10:53:25;;;;;;;9.30;5.83;;;11.00;99.90;;;;;;4388235;28;659000;-70
2023/04/12 10:56:39;;;;;;;12.47;6.20;;;11.30;99.90;;;;;;4387240;28;657995;-70
2023/04/12 10:59:26;;;;;;;9.40;5.30;;;11.00;99.90;;;;;;4387807;28;659271;-70
2023/04/12 11:02:14;;;;;;;10.00;5.70;;;10.70;99.90;;;;;;4435761;28;657376;-70
2023/04/12 11:05:07;;;;;;;13.33;5.63;;;10.80;99.90;;;;;;4414844;28;658360;-70
2023/04/12 11:07:54;;;;;;;8.17;4.50;;;10.60;99.90;;;;;;4410670;28;658686;-70
2023/04/12 11:10:41;;;;;;;7.27;4.40;;;10.30;99.90;;;;;;4413277;28;657439;-70
2023/04/12 11:13:34;;;;;;;6.27;4.20;;;10.80;99.90;;;;;;4434562;28;657407;-70
2023/04/12 11:16:21;;;;;;;12.47;4.13;;;11.10;99.90;;;;;;4415228;28;657768;-70
2023/04/12 11:19:08;;;;;;;6.43;4.00;;;11.30;99.90;;;;;;4433298;28;659575;-70
2023/04/12 11:21:55;;;;;;;6.33;3.80;;;11.40;99.90;;;;;;4415643;28;658183;-70
2023/04/12 11:24:43;;;;;;;8.13;4.47;;;11.70;99.90;;;;;;4434311;28;658569;-70
2023/04/12 11:27:31;;;;;;;7.90;4.60;;;12.10;99.90;;;;;;4415384;28;657714;-70
2023/04/12 11:30:20;;;;;;;6.43;4.00;;;11.70;99.90;;;;;;4434413;28;658632;-70
2023/04/12 11:33:07;;;;;;;9.77;4.87;;;11.90;99.90;;;;;;4411473;28;657660;-70
2023/04/12 11:35:54;;;;;;;11.88;4.20;;;11.80;99.90;;;;;;4434582;28;657652;-70
2023/04/12 11:38:42;;;;;;;6.40;3.97;;;11.20;99.90;;;;;;4414220;28;658824;-70
2023/04/12 11:41:29;;;;;;;7.70;4.37;;;11.60;99.90;;;;;;4434028;28;657808;-70
2023/04/12 11:44:18;;;;;;;10.80;4.50;;;12.10;99.90;;;;;;4411228;28;658521;-69
2023/04/12 11:47:08;;;;;;;5.70;4.00;;;11.60;99.90;;;;;;4417371;28;658962;-70
2023/04/12 11:49:56;;;;;;;6.90;4.17;;;11.60;99.90;;;;;;4415378;28;658512;-70
2023/04/12 11:52:43;;;;;;;6.87;4.30;;;12.00;99.90;;;;;;4448493;28;658952;-69
2023/04/12 11:55:30;;;;;;;9.87;4.37;;;12.30;99.90;;;;;;4432720;28;657933;-70
2023/04/12 11:58:18;;;;;;;9.47;4.07;;;13.40;99.90;;;;;;4451288;28;657814;-70
2023/04/12 12:01:05;;;;;;;6.50;3.80;;;13.40;97.40;;;;;;4432683;28;657788;-70
2023/04/12 12:03:54;;;;;;;8.37;4.20;;;13.10;94.00;;;;;;4451357;28;659581;-70
2023/04/12 12:06:41;;;;;;;9.07;4.13;;;12.70;95.20;;;;;;4432535;28;657757;-70
2023/04/12 12:09:28;;;;;;;6.33;3.30;;;12.90;95.90;;;;;;4451507;28;658477;-70
2023/04/12 12:12:16;;;;;;;7.00;3.50;;;13.20;90.20;;;;;;4432374;28;657761;-70
2023/04/12 12:15:03;;;;;;;5.07;3.07;;;12.90;90.00;;;;;;4450716;28;658082;-70
2023/04/12 12:17:51;;;;;;;6.17;3.10;;;13.40;94.60;;;;;;4435923;28;658208;-70
2023/04/12 12:20:47;;;;;;;5.33;3.10;;;13.70;91.80;;;;;;4451268;28;658034;-70
2023/04/12 12:23:34;;;;;;;5.10;3.03;;;14.70;87.30;;;;;;4428107;28;657379;-70
2023/04/12 12:26:22;;;;;;;5.40;2.80;;;14.60;75.60;;;;;;4432388;28;657626;-70
2023/04/12 12:29:17;;;;;;;4.80;2.60;;;15.00;76.30;;;;;;4450638;28;657929;-69
2023/04/12 12:32:10;;;;;;;3.47;2.27;;;14.70;75.70;;;;;;4427829;28;658313;-70
2023/04/12 12:34:58;;;;;;;4.47;2.60;;;15.30;66.10;;;;;;4405173;28;658363;-71
2023/04/12 12:37:51;;;;;;;4.30;2.47;;;15.20;71.20;;;;;;4432048;28;657613;-70
2023/04/12 12:40:38;;;;;;;3.97;2.50;;;15.40;69.40;;;;;;4427932;28;658446;-70
2023/04/12 12:43:27;;;;;;;9.13;3.93;;;15.00;62.10;;;;;;4431720;28;657406;-70
2023/04/12 12:46:14;;;;;;;5.67;2.83;;;15.50;71.10;;;;;;4450671;28;658042;-70
2023/04/12 12:49:01;;;;;;;4.43;2.60;;;16.20;63.90;;;;;;4429152;28;658253;-70
2023/04/12 12:51:49;;;;;;;5.60;2.77;;;15.90;63.10;;;;;;4450392;28;658315;-71
2023/04/12 12:54:37;;;;;;;5.53;2.60;;;15.60;61.40;;;;;;4431868;28;657753;-70
2023/04/12 12:57:25;;;;;;;8.90;2.93;;;15.20;64.10;;;;;;4450630;28;658097;-70
2023/04/12 13:00:14;;;;;;;4.60;2.90;;;14.70;62.60;;;;;;4430411;28;658550;-71
2023/04/12 13:03:01;;;;;;;4.27;3.00;;;14.50;62.60;;;;;;4431626;28;658147;-70
2023/04/12 13:05:48;;;;;;;5.67;3.20;;;14.00;64.20;;;;;;4453283;28;658025;-71
2023/04/12 13:08:35;;;;;;;4.83;2.77;;;13.80;67.70;;;;;;4431613;28;657550;-70
2023/04/12 13:11:24;;;;;;;5.33;2.60;;;13.70;65.00;;;;;;4450286;28;658198;-71
2023/04/12 13:14:11;;;;;;;4.83;2.40;;;13.60;70.20;;;;;;4431584;28;657847;-70
2023/04/12 13:16:58;;;;;;;7.27;2.60;;;13.20;65.40;;;;;;4450651;28;658482;-70
2023/04/12 13:19:46;;;;;;;4.87;2.80;;;13.00;66.80;;;;;;4431475;28;657314;-70
2023/04/12 13:22:33;;;;;;;4.43;2.77;;;12.90;69.50;;;;;;4450084;28;658307;-70
2023/04/12 13:25:21;;;;;;;5.10;3.40;;;13.00;72.40;;;;;;4431053;28;657505;-70
2023/04/12 13:28:11;;;;;;;8.32;3.67;;;13.00;69.30;;;;;;4451539;28;657970;-71
2023/04/12 13:30:58;;;;;;;5.83;3.27;;;13.10;72.50;;;;;;4427041;28;657878;-71
2023/04/12 13:33:45;;;;;;;9.07;3.37;;;13.30;75.00;;;;;;4431510;28;658130;-70
2023/04/12 13:36:32;;;;;;;6.97;3.80;;;13.50;74.40;;;;;;4454605;28;657418;-71
2023/04/12 13:39:20;;;;;;;5.90;3.07;;;13.60;71.00;;;;;;4449857;28;657529;-71
2023/04/12 13:42:07;;;;;;;4.47;2.97;;;13.70;70.10;;;;;;4427076;28;658227;-71
2023/04/12 13:44:57;;;;;;;6.73;2.87;;;13.80;69.60;;;;;;4447257;28;657693;-70
2023/04/12 13:47:44;;;;;;;5.50;2.87;;;13.80;66.90;;;;;;4450689;28;657522;-71
2023/04/12 13:50:31;;;;;;;6.57;3.77;;;14.00;68.50;;;;;;4431329;28;657785;-71
2023/04/12 13:53:18;;;;;;;4.85;3.13;;;14.20;68.50;;;;;;4432383;28;657777;-71
2023/04/12 13:56:06;;;;;;;3.63;2.77;;;14.20;69.80;;;;;;4413605;28;657776;-70
2023/04/12 13:58:53;;;;;;;5.50;2.67;;;14.00;70.20;;;;;;4432199;28;658419;-71
2023/04/12 14:01:42;;;;;;;14.17;3.00;;;13.80;68.10;;;;;;4413449;28;657471;-71
2023/04/12 14:04:30;;;;;;;4.43;3.20;;;14.10;70.30;;;;;;4431374;28;658293;-71
2023/04/12 14:07:17;;;;;;;6.20;3.40;;;14.40;67.50;;;;;;4413333;28;657607;-71
2023/04/12 14:10:05;;;;;;;6.77;3.27;;;14.30;69.10;;;;;;4429606;28;657597;-71
2023/04/12 14:12:52;;;;;;;7.20;2.77;;;14.40;68.70;;;;;;4413716;28;658332;-71
2023/04/12 14:15:39;;;;;;;7.47;3.93;;;14.20;67.00;;;;;;4430281;28;657732;-71
2023/04/12 14:18:28;;;;;;;5.43;3.00;;;14.50;70.40;;;;;;4412199;28;657582;-71